Time;durP1;ratioP1;P1;durP2;ratioP2;P2;SDS_P1;SDS_P2;PMS_P1;PMS_P2;Temp;Humidity;BMP_temperature;BMP_pressure;BME280_temperature;BME280_humidity;BME280_pressure;Samples;Min_cycle;Max_cycle;Signal;HPM_P1;HPM_P2
2022/09/04 00:02:36;;;;;;;17.60;15.75;;;18.40;99.90;;;;;;5053046;28;20037;-59
2022/09/04 00:05:53;;;;;;;19.20;16.40;;;18.40;99.90;;;;;;5052770;28;20473;-61
2022/09/04 00:08:21;;;;;;;19.30;16.38;;;18.50;99.90;;;;;;4952404;29;20106;-60
2022/09/04 00:10:50;;;;;;;18.75;16.85;;;18.50;99.90;;;;;;4952232;29;20050;-56
2022/09/04 00:13:26;;;;;;;20.25;16.15;;;18.60;99.90;;;;;;4952314;29;20117;-56
2022/09/04 00:16:07;;;;;;;18.10;16.40;;;18.60;99.90;;;;;;4952174;29;20050;-55
2022/09/04 00:18:41;;;;;;;18.42;15.73;;;18.60;99.90;;;;;;4952119;29;20118;-51
2022/09/04 00:21:25;;;;;;;22.23;17.23;;;18.60;99.90;;;;;;4954816;28;20154;-62
2022/09/04 00:23:59;;;;;;;18.98;16.95;;;18.60;99.90;;;;;;4971035;28;20035;-59
2022/09/04 00:26:51;;;;;;;21.83;17.23;;;18.50;99.90;;;;;;4951726;29;20051;-60
2022/09/04 00:29:35;;;;;;;22.10;18.83;;;18.60;99.90;;;;;;4951833;29;20063;-56
2022/09/04 05:14:11;;;;;;;31.73;26.30;;;17.80;99.90;;;;;;5048896;28;20081;-58
2022/09/04 05:16:52;;;;;;;32.70;27.30;;;17.90;99.90;;;;;;5036335;28;20125;-53
2022/09/04 05:19:47;;;;;;;33.10;29.60;;;17.90;99.90;;;;;;5036012;28;20025;-62
2022/09/04 05:22:28;;;;;;;32.85;29.30;;;18.00;99.90;;;;;;5036135;28;20052;-58
2022/09/04 05:25:08;;;;;;;31.88;28.73;;;18.10;99.90;;;;;;5036388;28;20025;-58
2022/09/04 05:28:15;;;;;;;32.22;28.95;;;18.10;99.90;;;;;;5035948;28;20416;-63
2022/09/04 05:30:47;;;;;;;33.28;29.40;;;18.00;99.90;;;;;;4955493;29;20039;-57
2022/09/04 05:33:33;;;;;;;33.47;30.23;;;18.10;99.90;;;;;;4971195;28;20031;-56
2022/09/04 05:36:13;;;;;;;34.88;31.05;;;18.20;99.90;;;;;;4971311;28;20455;-53
2022/09/04 05:39:12;;;;;;;32.22;29.08;;;18.20;99.90;;;;;;4955297;29;20182;-55
2022/09/04 05:42:04;;;;;;;31.38;28.05;;;18.50;99.90;;;;;;4955193;29;20040;-58
2022/09/04 05:44:57;;;;;;;33.35;30.08;;;18.70;99.90;;;;;;4933331;29;20637;-60
2022/09/04 05:47:43;;;;;;;33.10;29.58;;;18.80;99.90;;;;;;4897925;29;20048;-57
2022/09/04 05:50:33;;;;;;;33.22;29.73;;;18.90;99.90;;;;;;4897953;29;20119;-52
2022/09/04 05:53:18;;;;;;;33.15;29.85;;;18.60;99.90;;;;;;4897890;29;20439;-60
2022/09/04 05:55:53;;;;;;;33.38;30.02;;;18.60;99.90;;;;;;4897877;29;20060;-57
2022/09/04 05:58:21;;;;;;;36.00;31.73;;;18.60;99.90;;;;;;4897847;29;20055;-58
2022/09/04 06:01:22;;;;;;;36.80;33.17;;;18.60;99.90;;;;;;4897706;29;20131;-62
2022/09/04 06:04:04;;;;;;;37.22;33.47;;;18.70;99.90;;;;;;4907336;28;20046;-55
2022/09/04 06:06:55;;;;;;;39.75;35.47;;;18.80;99.90;;;;;;4973973;28;20153;-58
2022/09/04 06:09:32;;;;;;;37.75;33.53;;;19.00;99.90;;;;;;4973886;28;20054;-56
2022/09/04 06:12:07;;;;;;;36.85;32.95;;;19.20;99.90;;;;;;4973825;28;20426;-57
2022/09/04 06:14:40;;;;;;;36.35;32.58;;;19.30;99.90;;;;;;4957361;28;20459;-57
2022/09/04 06:17:12;;;;;;;37.47;33.08;;;19.30;99.90;;;;;;4973732;28;20702;-55
2022/09/04 06:19:37;;;;;;;;;;;19.10;99.90;;;;;;4974171;28;20043;-56
2022/09/04 06:22:39;;;;;;;52.40;47.00;;;19.10;99.90;;;;;;4973298;28;19913;-58
2022/09/04 06:25:39;;;;;;;43.00;38.28;;;19.20;99.90;;;;;;5039494;28;20033;-57
2022/09/04 06:28:23;;;;;;;36.88;32.45;;;19.30;99.90;;;;;;5031100;28;20178;-53
2022/09/04 06:31:18;;;;;;;33.15;29.70;;;19.40;99.90;;;;;;5054878;28;20021;-57
2022/09/04 06:33:53;;;;;;;33.13;29.63;;;19.40;99.90;;;;;;4992819;28;20133;-56
2022/09/04 06:36:38;;;;;;;32.95;29.38;;;19.50;99.90;;;;;;4992693;28;20043;-60
2022/09/04 06:39:07;;;;;;;33.15;29.02;;;19.60;99.90;;;;;;4992818;28;20450;-61
2022/09/04 06:42:01;;;;;;;33.63;30.15;;;19.70;99.90;;;;;;4992722;28;20085;-57
2022/09/04 06:44:39;;;;;;;34.03;30.02;;;19.70;99.90;;;;;;4992693;28;20618;-58
2022/09/04 06:47:16;;;;;;;31.50;28.30;;;19.70;99.90;;;;;;4992603;28;20030;-59
2022/09/04 06:50:04;;;;;;;33.03;28.70;;;19.80;99.90;;;;;;4992814;28;20137;-54
2022/09/04 06:52:48;;;;;;;40.05;29.73;;;19.90;99.90;;;;;;4953660;29;20045;-60
2022/09/04 06:55:26;;;;;;;32.05;27.65;;;20.10;99.90;;;;;;4953663;29;20032;-56
2022/09/04 06:58:10;;;;;;;30.55;27.30;;;20.20;99.90;;;;;;4953733;29;20054;-56
2022/09/04 07:00:45;;;;;;;29.77;26.77;;;20.20;99.90;;;;;;4953624;29;20035;-53
2022/09/04 07:03:32;;;;;;;30.30;27.30;;;20.30;99.90;;;;;;4953518;29;20058;-53
2022/09/04 07:06:20;;;;;;;29.67;26.50;;;20.40;99.90;;;;;;4953715;29;20031;-56
2022/09/04 07:08:58;;;;;;;28.40;25.52;;;20.70;99.90;;;;;;4953633;29;20063;-62
2022/09/04 07:11:54;;;;;;;28.70;25.80;;;20.80;99.90;;;;;;4968696;28;20046;-58
2022/09/04 07:14:26;;;;;;;27.30;24.50;;;20.80;99.90;;;;;;4972568;28;20051;-58
2022/09/04 07:17:10;;;;;;;28.38;25.48;;;21.00;99.90;;;;;;4972876;28;20441;-57
2022/09/04 07:19:42;;;;;;;29.33;25.33;;;21.00;99.90;;;;;;4972711;28;20042;-55
2022/09/04 07:22:18;;;;;;;27.35;24.55;;;;;;;;;;4972689;28;20039;-56
2022/09/04 07:24:55;;;;;;;28.55;25.52;;;21.40;99.90;;;;;;4972708;28;20027;-58
2022/09/04 07:27:51;;;;;;;26.10;23.35;;;21.50;99.90;;;;;;4972552;28;20058;-57
2022/09/04 07:30:19;;;;;;;26.05;23.45;;;21.60;99.90;;;;;;5019654;28;20092;-54
2022/09/04 07:32:56;;;;;;;25.38;22.85;;;21.80;99.90;;;;;;5033694;28;20029;-56
2022/09/04 07:35:41;;;;;;;24.77;22.27;;;21.90;99.90;;;;;;5033117;28;20543;-58
2022/09/04 07:38:40;;;;;;;25.67;22.92;;;;;;;;;;5033493;28;20476;-58
2022/09/04 07:41:38;;;;;;;27.08;24.23;;;22.40;99.90;;;;;;4972211;28;20203;-58
2022/09/04 07:44:18;;;;;;;28.60;24.40;;;22.40;99.90;;;;;;4952644;28;20066;-56
2022/09/04 07:47:19;;;;;;;30.85;25.45;;;22.30;99.90;;;;;;4952936;29;20035;-54
2022/09/04 07:50:10;;;;;;;30.10;27.00;;;22.60;99.90;;;;;;4914665;29;20066;-52
2022/09/04 07:52:59;;;;;;;30.65;27.27;;;;;;;;;;4914637;29;20099;-59
2022/09/04 07:55:40;;;;;;;26.80;23.95;;;22.90;99.90;;;;;;4912640;29;20566;-55
2022/09/04 07:58:17;;;;;;;26.98;23.90;;;23.00;99.90;;;;;;4914530;29;20122;-55
2022/09/04 08:00:55;;;;;;;24.95;22.27;;;23.10;99.90;;;;;;4914381;29;20055;-57
2022/09/04 08:03:30;;;;;;;25.80;23.02;;;23.10;99.90;;;;;;4914339;29;20400;-50
2022/09/04 08:06:12;;;;;;;26.70;22.48;;;23.30;99.90;;;;;;4914538;29;20155;-54
2022/09/04 08:08:47;;;;;;;26.50;23.60;;;23.30;99.90;;;;;;4914432;29;20043;-53
2022/09/04 08:11:28;;;;;;;24.92;22.23;;;23.30;99.90;;;;;;4914156;29;20361;-56
2022/09/04 08:14:15;;;;;;;23.80;21.35;;;23.20;99.90;;;;;;4914217;29;20048;-60
2022/09/04 08:17:00;;;;;;;25.17;22.50;;;23.10;99.90;;;;;;4932918;29;20062;-54
2022/09/04 08:20:03;;;;;;;25.70;23.08;;;22.90;99.90;;;;;;4932744;29;20135;-61
2022/09/04 08:22:53;;;;;;;25.95;23.17;;;22.90;99.90;;;;;;4951869;29;20135;-55
2022/09/04 08:25:28;;;;;;;25.70;23.02;;;23.20;99.90;;;;;;4952118;29;20042;-56
2022/09/04 08:28:00;;;;;;;27.98;23.60;;;23.40;99.90;;;;;;4989245;28;20042;-61
2022/09/04 08:43:56;;;;;;;28.15;25.02;;;23.00;99.90;;;;;;5082521;27;20461;-52
2022/09/04 08:46:47;;;;;;;28.80;25.80;;;23.20;99.90;;;;;;5081172;28;20028;-55
2022/09/04 08:49:34;;;;;;;29.25;26.15;;;23.60;99.90;;;;;;5073018;28;20039;-55
2022/09/04 08:52:21;;;;;;;34.00;26.58;;;23.70;99.90;;;;;;5084223;28;20073;-56
2022/09/04 08:55:02;;;;;;;32.30;25.77;;;23.40;99.90;;;;;;5076437;28;20029;-53
2022/09/04 08:57:36;;;;;;;28.63;25.55;;;23.40;99.90;;;;;;5091188;28;20059;-55
2022/09/04 09:00:22;;;;;;;26.50;23.77;;;23.60;99.90;;;;;;5076303;28;20124;-53
2022/09/04 09:02:56;;;;;;;26.50;23.98;;;23.50;99.90;;;;;;5100050;28;20032;-54
2022/09/04 09:05:38;;;;;;;27.42;24.42;;;23.50;99.90;;;;;;5078809;28;20031;-51
2022/09/04 09:08:30;;;;;;;24.52;21.77;;;23.40;99.90;;;;;;5077140;28;20027;-58
2022/09/04 09:11:08;;;;;;;;;;;23.50;99.90;;;;;;5075190;28;20128;-53
2022/09/04 09:13:52;;;;;;;21.45;19.45;;;23.70;99.90;;;;;;5074405;28;19920;-52
2022/09/04 09:16:20;;;;;;;20.95;18.80;;;;;;;;;;5074230;28;20028;-54
2022/09/04 09:19:10;;;;;;;23.98;21.65;;;24.40;99.90;;;;;;5088446;28;20538;-56
2022/09/04 09:22:13;;;;;;;30.27;27.15;;;24.60;99.90;;;;;;5078377;28;20024;-54
2022/09/04 09:24:58;;;;;;;24.75;19.80;;;;;;;;;;5078065;28;20237;-56
2022/09/04 09:27:30;;;;;;;27.05;24.40;;;25.00;99.90;;;;;;5084157;28;20020;-53
2022/09/04 09:29:58;;;;;;;;;;;25.10;99.90;;;;;;5075564;28;20492;-53
2022/09/04 09:32:45;;;;;;;21.80;19.50;;;25.00;99.90;;;;;;5083217;28;19912;-51
2022/09/04 09:35:20;;;;;;;19.30;17.35;;;;;;;;;;5074561;28;20038;-53
2022/09/04 09:38:18;;;;;;;21.02;18.92;;;25.60;99.90;;;;;;5073346;28;20028;-54
2022/09/04 09:40:54;;;;;;;23.88;20.25;;;26.00;99.90;;;;;;5079292;28;20035;-53
2022/09/04 09:43:40;;;;;;;23.42;21.00;;;26.10;99.90;;;;;;5069707;28;20379;-55
2022/09/04 09:46:27;;;;;;;17.80;16.10;;;26.10;99.90;;;;;;5062661;28;20031;-53
2022/09/04 09:49:04;;;;;;;17.80;16.00;;;26.40;99.90;;;;;;5065108;28;20029;-52
2022/09/04 09:51:57;;;;;;;18.90;16.95;;;26.70;99.90;;;;;;5064566;28;20063;-54
2022/09/04 09:54:42;;;;;;;17.90;16.02;;;27.30;99.90;;;;;;5061570;28;20483;-54
2022/09/04 09:57:07;;;;;;;22.02;19.77;;;27.60;99.90;;;;;;5063592;28;20067;-55
2022/09/04 09:59:51;;;;;;;21.17;18.98;;;27.60;99.90;;;;;;5063282;28;20113;-52
2022/09/04 10:02:36;;;;;;;19.35;17.30;;;27.30;99.90;;;;;;5070680;28;20025;-55
2022/09/04 10:05:31;;;;;;;19.67;17.52;;;27.70;99.90;;;;;;5053737;28;20086;-53
2022/09/04 10:08:24;;;;;;;16.92;15.40;;;27.70;99.90;;;;;;5023448;28;20120;-54
2022/09/04 10:11:02;;;;;;;20.40;18.38;;;;;;;;;;5020683;28;20440;-54
2022/09/04 10:13:28;;;;;;;21.65;19.40;;;;;;;;;;5021912;28;20053;-55
2022/09/04 10:16:09;;;;;;;22.02;19.77;;;27.40;99.90;;;;;;5018452;28;20092;-51
2022/09/04 10:18:59;;;;;;;21.02;19.00;;;27.00;99.90;;;;;;5018494;28;20034;-54
2022/09/04 10:22:01;;;;;;;19.67;17.77;;;27.10;99.90;;;;;;5019747;28;20026;-52
2022/09/04 10:24:36;;;;;;;18.05;16.35;;;27.00;99.90;;;;;;5019170;28;20052;-55
2022/09/04 10:27:33;;;;;;;18.13;16.42;;;27.20;99.90;;;;;;5021919;28;20067;-51
2022/09/04 10:30:09;;;;;;;22.73;20.40;;;27.10;99.90;;;;;;5017404;28;20045;-50
2022/09/04 10:33:03;;;;;;;20.50;18.60;;;26.70;99.90;;;;;;4979351;28;20066;-53
2022/09/04 10:35:51;;;;;;;19.45;17.63;;;26.50;99.90;;;;;;5018668;28;20117;-52
2022/09/04 10:38:26;;;;;;;18.80;17.00;;;26.50;99.90;;;;;;5021008;28;20046;-55
2022/09/04 10:41:14;;;;;;;17.90;16.15;;;26.50;99.90;;;;;;5024967;28;20102;-55
2022/09/04 10:44:01;;;;;;;17.95;16.23;;;26.60;99.90;;;;;;5013483;28;20084;-54
2022/09/04 10:47:09;;;;;;;17.40;15.80;;;26.80;99.90;;;;;;5058177;28;20057;-54
2022/09/04 10:49:41;;;;;;;18.00;16.17;;;;;;;;;;5058933;28;20111;-54
2022/09/04 10:52:24;;;;;;;19.70;17.90;;;27.30;99.90;;;;;;5062164;28;20093;-54
2022/09/04 10:55:17;;;;;;;21.95;18.88;;;27.50;99.90;;;;;;5061634;28;20029;-51
2022/09/04 10:57:58;;;;;;;19.25;16.60;;;27.70;99.90;;;;;;5060082;28;20028;-53
2022/09/04 11:00:52;;;;;;;16.75;15.07;;;27.90;99.90;;;;;;5058438;28;20037;-53
2022/09/04 11:03:32;;;;;;;18.38;15.93;;;27.90;99.90;;;;;;5057644;28;20033;-53
2022/09/04 11:06:36;;;;;;;15.73;14.13;;;27.60;99.90;;;;;;5062360;28;20044;-51
2022/09/04 11:09:13;;;;;;;16.30;14.73;;;27.50;99.90;;;;;;5044741;28;20024;-54
2022/09/04 11:11:57;;;;;;;14.52;13.13;;;27.30;99.90;;;;;;5059624;28;20090;-54
2022/09/04 11:14:27;;;;;;;15.88;14.05;;;27.20;99.90;;;;;;5053308;28;20028;-52
2022/09/04 11:17:31;;;;;;;15.88;12.95;;;27.40;99.90;;;;;;5051147;28;20029;-53
2022/09/04 11:20:06;;;;;;;13.90;12.45;;;;;;;;;;5061843;28;20029;-54
2022/09/04 11:22:35;;;;;;;11.93;10.82;;;;;;;;;;5059381;28;20021;-53
2022/09/04 11:25:05;;;;;;;12.75;11.45;;;;;;;;;;5059291;28;20029;-51
2022/09/04 11:27:54;;;;;;;11.18;10.18;;;28.40;99.90;;;;;;5059836;28;20502;-52
2022/09/04 11:30:25;;;;;;;12.13;10.95;;;27.80;99.90;;;;;;5055729;28;20376;-52
2022/09/04 11:33:10;;;;;;;14.77;13.40;;;27.70;99.90;;;;;;5068094;28;20029;-54
2022/09/04 11:36:06;;;;;;;14.10;12.70;;;27.50;99.90;;;;;;5062806;28;20285;-53
2022/09/04 11:39:00;;;;;;;13.95;12.07;;;27.50;99.90;;;;;;5075124;28;20045;-55
2022/09/04 11:41:42;;;;;;;11.38;10.38;;;27.10;99.90;;;;;;5047069;28;20016;-53
2022/09/04 11:44:37;;;;;;;11.35;10.18;;;27.00;99.90;;;;;;5060185;28;20123;-53
2022/09/04 11:47:55;;;;;;;11.52;10.43;;;27.20;99.90;;;;;;5073038;28;20078;-54
2022/09/04 11:50:39;;;;;;;12.65;11.45;;;26.80;99.90;;;;;;5054358;28;20618;-55
2022/09/04 11:53:25;;;;;;;12.45;11.25;;;26.80;99.90;;;;;;5060641;28;20036;-55
2022/09/04 11:55:57;;;;;;;12.52;10.50;;;26.90;99.90;;;;;;5038934;28;20068;-52
2022/09/04 11:58:27;;;;;;;16.55;13.65;;;;;;;;;;5061520;28;20028;-53
2022/09/04 12:01:36;;;;;;;15.05;13.40;;;26.70;99.90;;;;;;5053972;28;20156;-55
2022/09/04 12:04:24;;;;;;;13.75;11.98;;;26.70;99.90;;;;;;5027823;28;20037;-52
2022/09/04 12:07:17;;;;;;;12.88;11.70;;;26.80;99.90;;;;;;5054954;28;20036;-55
2022/09/04 12:10:22;;;;;;;12.52;11.23;;;26.90;99.90;;;;;;5048158;28;20037;-53
2022/09/04 12:13:42;;;;;;;13.50;11.65;;;27.10;99.90;;;;;;5058032;28;20094;-56
2022/09/04 12:16:25;;;;;;;12.50;11.35;;;27.20;99.90;;;;;;4975012;28;20041;-54
2022/09/04 12:18:54;;;;;;;12.52;10.88;;;27.20;99.90;;;;;;4974276;28;20065;-56
2022/09/04 12:21:56;;;;;;;11.85;10.13;;;27.40;99.90;;;;;;4989970;28;20201;-54
2022/09/04 12:24:40;;;;;;;11.88;10.25;;;27.40;99.90;;;;;;4994718;28;20070;-54
2022/09/04 12:27:23;;;;;;;12.15;10.82;;;27.50;99.90;;;;;;4996493;28;20460;-53
2022/09/04 12:30:24;;;;;;;12.48;11.27;;;27.40;99.90;;;;;;4996934;28;20045;-57
2022/09/04 12:32:58;;;;;;;11.30;10.20;;;27.10;99.90;;;;;;5002586;28;20058;-55
2022/09/04 12:35:34;;;;;;;13.75;12.43;;;27.20;99.90;;;;;;4991633;28;20042;-56
2022/09/04 12:38:25;;;;;;;13.13;11.98;;;27.40;99.90;;;;;;4997457;28;20095;-55
2022/09/04 12:41:29;;;;;;;13.18;11.88;;;27.30;99.90;;;;;;4997950;28;20086;-56
2022/09/04 12:44:04;;;;;;;12.48;11.27;;;27.20;99.90;;;;;;4999979;28;20046;-53
2022/09/04 12:46:51;;;;;;;15.25;12.75;;;27.10;99.90;;;;;;5004821;28;20139;-55
2022/09/04 12:49:57;;;;;;;15.60;11.63;;;27.30;99.90;;;;;;5052332;28;20064;-55
2022/09/04 12:52:49;;;;;;;12.98;11.88;;;27.50;99.90;;;;;;5057148;28;20064;-51
2022/09/04 12:55:24;;;;;;;13.35;11.98;;;27.70;99.90;;;;;;5030585;28;20151;-55
2022/09/04 12:58:17;;;;;;;11.85;10.85;;;27.60;99.90;;;;;;5060688;28;20067;-55
2022/09/04 13:01:09;;;;;;;12.57;11.48;;;27.50;99.90;;;;;;5055501;28;20082;-57
2022/09/04 13:03:47;;;;;;;12.63;11.48;;;27.70;99.90;;;;;;5056656;28;20040;-52
2022/09/04 13:06:26;;;;;;;14.30;13.10;;;27.70;99.90;;;;;;5052500;28;20083;-56
2022/09/04 13:09:20;;;;;;;11.88;10.68;;;27.50;99.90;;;;;;5032506;28;20164;-53
2022/09/04 13:12:04;;;;;;;13.77;12.55;;;27.50;99.90;;;;;;5055990;28;20045;-56
2022/09/04 13:15:02;;;;;;;13.60;12.30;;;27.50;99.90;;;;;;5057270;28;20032;-55
2022/09/04 13:17:38;;;;;;;14.50;13.20;;;27.00;99.90;;;;;;5062119;28;20071;-52
2022/09/04 13:20:21;;;;;;;16.88;12.23;;;26.90;99.90;;;;;;5061760;28;20463;-55
2022/09/04 13:23:10;;;;;;;14.70;13.30;;;26.70;99.90;;;;;;5061836;28;20033;-58
2022/09/04 13:26:02;;;;;;;11.05;10.02;;;26.60;99.90;;;;;;5018075;28;20033;-53
2022/09/04 13:28:46;;;;;;;14.13;12.77;;;26.50;99.90;;;;;;5012615;28;20068;-55
2022/09/04 13:31:18;;;;;;;12.98;11.75;;;26.70;99.90;;;;;;5017578;28;20038;-56
2022/09/04 13:34:14;;;;;;;14.35;13.05;;;26.40;99.90;;;;;;5017510;28;20080;-56
2022/09/04 13:36:57;;;;;;;13.75;12.23;;;26.50;99.90;;;;;;5019483;28;20060;-56
2022/09/04 13:39:42;;;;;;;14.60;12.48;;;26.80;99.90;;;;;;5020329;28;20037;-53
2022/09/04 13:42:30;;;;;;;12.07;10.98;;;27.60;99.90;;;;;;5021486;28;20132;-57
2022/09/04 13:45:04;;;;;;;13.55;12.25;;;;;;;;;;5020061;28;20056;-52
2022/09/04 13:47:37;;;;;;;13.02;11.73;;;;;;;;;;5021953;28;20034;-53
2022/09/04 13:50:09;;;;;;;10.95;10.00;;;;;;;;;;5019297;28;20562;-49
2022/09/04 13:52:38;;;;;;;11.65;10.65;;;;;;;;;;5022388;28;20046;-50
2022/09/04 13:55:07;;;;;;;15.15;13.75;;;;;;;;;;5018155;28;20033;-50
2022/09/04 13:57:38;;;;;;;15.75;14.35;;;;;;;;;;5042130;28;20039;-53
2022/09/04 14:00:06;;;;;;;16.77;15.00;;;;;;;;;;5017543;28;20045;-51
2022/09/04 14:02:35;;;;;;;15.50;14.20;;;;;;;;;;5014435;28;20065;-53
2022/09/04 14:05:13;;;;;;;15.27;13.82;;;;;;;;;;5053389;28;20468;-56
2022/09/04 14:07:41;;;;;;;17.35;15.65;;;;;;;;;;5065515;28;20111;-55
2022/09/04 14:10:14;;;;;;;16.88;15.18;;;;;;;;;;5068056;28;20493;-53
2022/09/04 14:13:07;;;;;;;17.85;16.08;;;28.00;99.90;;;;;;5062052;28;20087;-53
2022/09/04 14:15:56;;;;;;;17.90;16.10;;;;;;;;;;5067497;28;20502;-54
2022/09/04 14:18:34;;;;;;;15.73;13.88;;;28.10;99.90;;;;;;5063777;28;20033;-53
2022/09/04 14:21:18;;;;;;;16.13;14.45;;;28.20;99.90;;;;;;5062968;28;20087;-53
2022/09/04 14:24:02;;;;;;;19.60;15.63;;;28.70;99.90;;;;;;5064704;28;20061;-54
2022/09/04 14:27:01;;;;;;;16.10;14.70;;;28.40;99.90;;;;;;5064015;28;20036;-53
2022/09/04 14:29:53;;;;;;;15.75;14.35;;;27.70;99.90;;;;;;5054791;28;20108;-53
2022/09/04 14:32:37;;;;;;;17.48;15.98;;;;;;;;;;5043286;28;20119;-56
2022/09/04 14:35:34;;;;;;;17.77;16.15;;;27.60;99.90;;;;;;5055915;28;20473;-53
2022/09/04 14:38:12;;;;;;;17.30;15.52;;;;;;;;;;5060270;28;20029;-54
2022/09/04 14:40:42;;;;;;;18.13;16.27;;;;;;;;;;5059066;28;20119;-55
2022/09/04 14:43:36;;;;;;;18.85;17.10;;;27.10;99.90;;;;;;5058756;28;20041;-53
2022/09/04 14:46:34;;;;;;;18.13;16.33;;;27.30;99.90;;;;;;5068072;28;20021;-55
2022/09/04 14:49:07;;;;;;;20.85;17.48;;;27.50;99.90;;;;;;5063126;28;20062;-55
2022/09/04 14:51:42;;;;;;;19.73;17.88;;;27.70;99.90;;;;;;5062844;28;20383;-55
2022/09/04 14:54:14;;;;;;;18.65;16.95;;;27.90;99.90;;;;;;5062955;28;20032;-55
2022/09/04 14:56:51;;;;;;;18.05;16.42;;;28.10;99.90;;;;;;5062840;28;20037;-56
2022/09/04 14:59:30;;;;;;;18.23;16.52;;;28.50;99.90;;;;;;5063103;28;20142;-56
2022/09/04 15:02:08;;;;;;;19.50;17.73;;;28.40;99.90;;;;;;5056804;28;20029;-52
2022/09/04 15:04:46;;;;;;;20.05;16.73;;;28.50;99.90;;;;;;5058614;28;20025;-56
2022/09/04 15:07:18;;;;;;;16.55;15.15;;;28.50;99.90;;;;;;5046469;28;20052;-57
2022/09/04 15:09:45;;;;;;;;;;;28.50;99.90;;;;;;5050765;28;20028;-56
2022/09/04 15:12:35;;;;;;;18.73;16.80;;;28.40;99.90;;;;;;5052803;28;19921;-53
2022/09/04 15:15:30;;;;;;;17.60;16.02;;;28.30;99.90;;;;;;5051183;28;20025;-53
2022/09/04 15:18:14;;;;;;;20.90;17.13;;;28.10;99.90;;;;;;5051867;28;20032;-53
2022/09/04 15:20:54;;;;;;;19.63;17.85;;;27.70;99.90;;;;;;5061011;28;20045;-50
2022/09/04 15:24:00;;;;;;;20.05;17.88;;;27.30;99.90;;;;;;5062564;28;20029;-55
2022/09/04 15:26:38;;;;;;;21.30;18.90;;;27.00;99.90;;;;;;5033087;28;20045;-53
2022/09/04 15:29:13;;;;;;;20.90;19.00;;;26.80;99.90;;;;;;5063734;28;20476;-55
2022/09/04 15:31:41;;;;;;;21.73;19.80;;;26.70;99.90;;;;;;5049939;28;20044;-55
2022/09/04 15:34:10;;;;;;;22.20;20.13;;;26.60;99.90;;;;;;5060479;28;20028;-56
2022/09/04 15:36:37;;;;;;;20.08;18.15;;;26.50;99.90;;;;;;5057506;28;20047;-56
2022/09/04 15:39:09;;;;;;;18.73;17.13;;;26.60;99.90;;;;;;5063613;28;20043;-56
2022/09/04 15:41:48;;;;;;;20.75;18.80;;;26.60;99.90;;;;;;5050796;28;20114;-53
2022/09/04 15:44:43;;;;;;;21.02;19.02;;;26.50;99.90;;;;;;5055068;28;20044;-56
2022/09/04 15:47:44;;;;;;;21.48;19.58;;;26.60;99.90;;;;;;5066660;28;20043;-53
2022/09/04 15:50:26;;;;;;;20.02;18.05;;;26.40;99.90;;;;;;5059484;28;20065;-54
2022/09/04 15:53:08;;;;;;;18.98;17.27;;;26.30;99.90;;;;;;5058589;28;20079;-57
2022/09/04 15:55:43;;;;;;;19.52;17.48;;;26.40;99.90;;;;;;5058932;28;20242;-55
2022/09/04 15:58:38;;;;;;;18.42;16.67;;;26.30;99.90;;;;;;5058919;28;20029;-53
2022/09/04 16:01:08;;;;;;;16.83;15.43;;;26.30;99.90;;;;;;5058725;28;20327;-53
2022/09/04 16:03:58;;;;;;;22.20;16.27;;;26.20;99.90;;;;;;5056910;28;20045;-57
2022/09/04 16:06:31;;;;;;;18.27;16.38;;;26.20;99.90;;;;;;5056474;28;20103;-57
2022/09/04 16:09:27;;;;;;;19.05;17.20;;;26.10;99.90;;;;;;5047908;28;20036;-54
2022/09/04 16:12:06;;;;;;;17.67;15.88;;;25.90;99.90;;;;;;5061859;28;20075;-56
2022/09/04 16:14:43;;;;;;;19.55;17.75;;;25.70;99.90;;;;;;5060805;28;20108;-54
2022/09/04 16:17:19;;;;;;;20.42;18.42;;;25.60;99.90;;;;;;5062316;28;20081;-57
2022/09/04 16:19:53;;;;;;;22.02;19.05;;;25.60;99.90;;;;;;5067883;28;20029;-53
2022/09/04 16:22:45;;;;;;;20.23;17.98;;;25.50;99.90;;;;;;5059448;28;20025;-55
2022/09/04 16:25:27;;;;;;;19.98;17.88;;;25.40;99.90;;;;;;5061956;28;20029;-54
2022/09/04 16:28:14;;;;;;;19.92;17.92;;;25.40;99.90;;;;;;5059435;28;20037;-54
2022/09/04 16:30:45;;;;;;;21.38;19.05;;;25.40;99.90;;;;;;5066321;28;20035;-56
2022/09/04 16:33:39;;;;;;;18.60;15.80;;;25.40;99.90;;;;;;5061604;28;20036;-53
2022/09/04 16:36:12;;;;;;;18.65;16.70;;;25.50;99.90;;;;;;5061439;28;20028;-52
2022/09/04 16:38:46;;;;;;;16.45;14.95;;;;;;;;;;5058107;28;20037;-54
2022/09/04 16:41:47;;;;;;;17.95;16.20;;;;;;;;;;5054351;28;20068;-53
2022/09/04 16:44:16;;;;;;;19.05;16.10;;;;;;;;;;4989554;28;20129;-55
2022/09/04 16:46:45;;;;;;;19.73;17.75;;;;;;;;;;4989025;28;20038;-52
2022/09/04 16:49:16;;;;;;;17.77;16.10;;;;;;;;;;4990252;28;20066;-55
2022/09/04 16:51:51;;;;;;;19.40;17.47;;;;;;;;;;4989147;28;20070;-54
2022/09/04 16:54:47;;;;;;;18.73;17.08;;;25.10;99.90;;;;;;4991693;28;20072;-55
2022/09/04 16:57:16;;;;;;;19.40;17.42;;;25.30;99.90;;;;;;4993342;28;20121;-53
2022/09/04 16:59:46;;;;;;;19.85;17.85;;;25.10;99.90;;;;;;4993202;28;20446;-56
2022/09/04 17:02:31;;;;;;;19.60;17.50;;;25.00;99.90;;;;;;4976818;28;20072;-57
2022/09/04 17:05:22;;;;;;;21.05;18.60;;;;;;;;;;4993209;28;20034;-56
2022/09/04 17:08:01;;;;;;;25.17;19.42;;;24.90;99.90;;;;;;4916167;29;20523;-53
2022/09/04 17:10:44;;;;;;;22.63;20.15;;;24.90;99.90;;;;;;4907359;29;20373;-55
2022/09/04 17:13:14;;;;;;;21.98;19.67;;;;;;;;;;4910336;29;20059;-53
2022/09/04 17:15:47;;;;;;;26.98;21.92;;;24.70;99.90;;;;;;4907412;29;20036;-56
2022/09/04 17:18:13;;;;;;;23.65;21.25;;;24.70;99.90;;;;;;4950014;28;20545;-55
2022/09/04 17:20:56;;;;;;;27.08;23.02;;;24.50;99.90;;;;;;4996944;28;20124;-54
2022/09/04 17:23:31;;;;;;;26.02;21.75;;;24.40;99.90;;;;;;4995501;28;20605;-54
2022/09/04 17:26:06;;;;;;;21.88;19.77;;;;;;;;;;4979160;28;20498;-54
2022/09/04 17:28:45;;;;;;;22.38;20.33;;;24.30;99.90;;;;;;4995204;28;20145;-56
2022/09/04 17:31:20;;;;;;;24.55;20.55;;;24.30;99.90;;;;;;4977450;28;20035;-54
2022/09/04 17:34:12;;;;;;;23.42;21.08;;;24.30;99.90;;;;;;4978209;28;20494;-52
2022/09/04 17:37:25;;;;;;;21.05;18.88;;;24.20;99.90;;;;;;4987854;28;20568;-55
2022/09/04 17:40:03;;;;;;;38.30;28.45;;;24.00;99.90;;;;;;4981971;28;20049;-53
2022/09/04 17:42:46;;;;;;;84.10;56.25;;;24.00;99.90;;;;;;4983974;28;20604;-55
2022/09/04 17:45:32;;;;;;;37.67;26.15;;;24.00;99.90;;;;;;5036163;28;20102;-52
2022/09/04 17:48:25;;;;;;;24.05;21.50;;;24.00;99.90;;;;;;5057148;28;20044;-56
2022/09/04 17:50:55;;;;;;;22.27;19.33;;;23.90;99.90;;;;;;5061809;28;20036;-53
2022/09/04 17:53:27;;;;;;;23.05;20.25;;;23.90;99.90;;;;;;5063419;28;20390;-56
2022/09/04 17:56:06;;;;;;;24.45;20.33;;;23.90;99.90;;;;;;5063533;28;20016;-56
2022/09/04 17:58:58;;;;;;;21.40;19.13;;;23.80;99.90;;;;;;5063245;28;20029;-57
2022/09/04 18:01:33;;;;;;;21.40;19.20;;;23.80;99.90;;;;;;5069311;28;20526;-53
2022/09/04 18:04:19;;;;;;;24.10;21.50;;;23.70;99.90;;;;;;5064199;28;20449;-53
2022/09/04 18:06:58;;;;;;;21.98;19.83;;;23.70;99.90;;;;;;5058023;28;20036;-54
2022/09/04 18:09:43;;;;;;;27.88;21.55;;;23.50;99.90;;;;;;5061510;28;20039;-56
2022/09/04 18:12:17;;;;;;;24.52;21.23;;;23.50;99.90;;;;;;5056026;28;20041;-54
2022/09/04 18:15:04;;;;;;;22.40;20.10;;;23.40;99.90;;;;;;5064873;28;20116;-54
2022/09/04 18:18:04;;;;;;;23.88;21.50;;;23.40;99.90;;;;;;5036146;28;20033;-57
2022/09/04 18:20:38;;;;;;;25.25;22.55;;;23.30;99.90;;;;;;5029939;28;20045;-54
2022/09/04 18:23:40;;;;;;;26.70;23.90;;;23.20;99.90;;;;;;4988052;28;20075;-54
2022/09/04 18:26:27;;;;;;;28.10;25.50;;;23.20;99.90;;;;;;5029991;28;20033;-55
2022/09/04 18:29:17;;;;;;;27.85;25.20;;;23.20;99.90;;;;;;5029651;28;20156;-56
2022/09/04 18:31:56;;;;;;;28.17;25.55;;;23.10;99.90;;;;;;4996748;28;20045;-54
2022/09/04 18:34:45;;;;;;;30.10;27.30;;;23.00;99.90;;;;;;5029593;28;20033;-53
2022/09/04 18:37:24;;;;;;;29.13;25.95;;;23.00;99.90;;;;;;5029591;28;20518;-58
2022/09/04 18:40:02;;;;;;;30.55;27.48;;;22.90;99.90;;;;;;5028402;28;20117;-56
2022/09/04 18:43:02;;;;;;;31.25;28.23;;;22.90;99.90;;;;;;5025732;28;20127;-56
2022/09/04 18:45:38;;;;;;;31.23;28.17;;;22.90;99.90;;;;;;5027858;28;20561;-56
2022/09/04 18:48:06;;;;;;;31.73;28.45;;;22.90;99.90;;;;;;5029608;28;20034;-56
2022/09/04 18:50:37;;;;;;;31.17;28.10;;;22.80;99.90;;;;;;5029466;28;20075;-57
2022/09/04 18:53:23;;;;;;;33.60;29.02;;;22.80;99.90;;;;;;5029206;28;20092;-57
2022/09/04 18:56:12;;;;;;;33.33;29.98;;;22.70;99.90;;;;;;5027834;28;20079;-52
2022/09/04 18:58:55;;;;;;;30.88;28.05;;;22.70;99.90;;;;;;5059731;28;20021;-55